sensor_id;sensor_type;location;lat;lon;timestamp;P1;durP1;ratioP1;P2;durP2;ratioP2
44228;SDS011;29904;51.058;5.378;2023-12-20T00:01:44;9.98;;;1.63;;
44228;SDS011;29904;51.058;5.378;2023-12-20T00:04:10;8.77;;;1.40;;
44228;SDS011;29904;51.058;5.378;2023-12-20T00:06:36;8.60;;;1.50;;
44228;SDS011;29904;51.058;5.378;2023-12-20T00:09:02;7.97;;;1.50;;
44228;SDS011;29904;51.058;5.378;2023-12-20T00:11:28;10.90;;;1.55;;
44228;SDS011;29904;51.058;5.378;2023-12-20T00:13:53;8.57;;;1.50;;
44228;SDS011;29904;51.058;5.378;2023-12-20T00:16:19;9.38;;;1.58;;
44228;SDS011;29904;51.058;5.378;2023-12-20T00:18:46;9.82;;;1.70;;
44228;SDS011;29904;51.058;5.378;2023-12-20T00:21:12;10.23;;;1.50;;
44228;SDS011;29904;51.058;5.378;2023-12-20T00:23:38;6.93;;;1.38;;
44228;SDS011;29904;51.058;5.378;2023-12-20T00:26:05;11.45;;;1.60;;
44228;SDS011;29904;51.058;5.378;2023-12-20T00:28:31;8.13;;;1.50;;
44228;SDS011;29904;51.058;5.378;2023-12-20T00:30:57;8.48;;;1.70;;
44228;SDS011;29904;51.058;5.378;2023-12-20T00:33:23;11.95;;;1.90;;
44228;SDS011;29904;51.058;5.378;2023-12-20T00:35:49;11.03;;;2.00;;
44228;SDS011;29904;51.058;5.378;2023-12-20T00:38:14;9.40;;;2.05;;
44228;SDS011;29904;51.058;5.378;2023-12-20T00:40:42;10.60;;;1.98;;
44228;SDS011;29904;51.058;5.378;2023-12-20T00:43:08;8.45;;;1.90;;
44228;SDS011;29904;51.058;5.378;2023-12-20T00:45:33;12.45;;;1.60;;
44228;SDS011;29904;51.058;5.378;2023-12-20T00:47:59;6.68;;;1.55;;
44228;SDS011;29904;51.058;5.378;2023-12-20T00:50:25;11.40;;;1.70;;
44228;SDS011;29904;51.058;5.378;2023-12-20T00:52:50;9.40;;;1.70;;
44228;SDS011;29904;51.058;5.378;2023-12-20T00:55:16;10.30;;;1.50;;
44228;SDS011;29904;51.058;5.378;2023-12-20T00:57:42;9.15;;;1.52;;
44228;SDS011;29904;51.058;5.378;2023-12-20T01:00:08;10.37;;;1.63;;
44228;SDS011;29904;51.058;5.378;2023-12-20T01:02:35;8.05;;;1.60;;
44228;SDS011;29904;51.058;5.378;2023-12-20T01:05:01;9.33;;;1.70;;
44228;SDS011;29904;51.058;5.378;2023-12-20T01:07:27;10.85;;;1.77;;
44228;SDS011;29904;51.058;5.378;2023-12-20T01:09:53;9.88;;;1.65;;
44228;SDS011;29904;51.058;5.378;2023-12-20T01:12:21;9.90;;;1.60;;
44228;SDS011;29904;51.058;5.378;2023-12-20T01:14:47;10.63;;;1.70;;
44228;SDS011;29904;51.058;5.378;2023-12-20T01:17:12;10.23;;;1.80;;
44228;SDS011;29904;51.058;5.378;2023-12-20T01:19:40;7.88;;;1.80;;
44228;SDS011;29904;51.058;5.378;2023-12-20T01:22:05;7.40;;;1.43;;
44228;SDS011;29904;51.058;5.378;2023-12-20T01:24:31;9.03;;;1.63;;
44228;SDS011;29904;51.058;5.378;2023-12-20T01:26:57;9.10;;;1.80;;
44228;SDS011;29904;51.058;5.378;2023-12-20T01:29:22;9.43;;;1.87;;
44228;SDS011;29904;51.058;5.378;2023-12-20T01:31:48;10.93;;;1.50;;
44228;SDS011;29904;51.058;5.378;2023-12-20T01:34:18;7.55;;;1.50;;
44228;SDS011;29904;51.058;5.378;2023-12-20T01:36:43;6.55;;;1.50;;
44228;SDS011;29904;51.058;5.378;2023-12-20T01:39:09;7.15;;;1.50;;
44228;SDS011;29904;51.058;5.378;2023-12-20T01:41:35;7.63;;;1.50;;
44228;SDS011;29904;51.058;5.378;2023-12-20T01:44:01;7.80;;;1.33;;
44228;SDS011;29904;51.058;5.378;2023-12-20T01:46:26;7.70;;;1.60;;
44228;SDS011;29904;51.058;5.378;2023-12-20T01:48:54;7.65;;;1.50;;
44228;SDS011;29904;51.058;5.378;2023-12-20T01:51:20;15.83;;;1.90;;
44228;SDS011;29904;51.058;5.378;2023-12-20T01:53:46;7.50;;;1.60;;
44228;SDS011;29904;51.058;5.378;2023-12-20T01:56:12;8.80;;;1.80;;
44228;SDS011;29904;51.058;5.378;2023-12-20T01:58:45;7.78;;;1.45;;
44228;SDS011;29904;51.058;5.378;2023-12-20T02:01:12;9.32;;;1.70;;
44228;SDS011;29904;51.058;5.378;2023-12-20T02:03:39;7.57;;;2.03;;
44228;SDS011;29904;51.058;5.378;2023-12-20T02:06:06;10.10;;;1.70;;
44228;SDS011;29904;51.058;5.378;2023-12-20T02:08:33;10.73;;;1.80;;
44228;SDS011;29904;51.058;5.378;2023-12-20T02:10:59;10.70;;;2.40;;
44228;SDS011;29904;51.058;5.378;2023-12-20T02:13:25;9.43;;;2.60;;
44228;SDS011;29904;51.058;5.378;2023-12-20T02:15:51;9.98;;;2.42;;
44228;SDS011;29904;51.058;5.378;2023-12-20T02:18:17;11.95;;;2.80;;
44228;SDS011;29904;51.058;5.378;2023-12-20T02:20:43;9.85;;;2.65;;
44228;SDS011;29904;51.058;5.378;2023-12-20T02:23:09;12.30;;;3.37;;
44228;SDS011;29904;51.058;5.378;2023-12-20T02:25:35;11.00;;;3.10;;
44228;SDS011;29904;51.058;5.378;2023-12-20T02:28:02;14.23;;;3.25;;
44228;SDS011;29904;51.058;5.378;2023-12-20T02:30:28;8.73;;;2.90;;
44228;SDS011;29904;51.058;5.378;2023-12-20T02:32:54;9.52;;;2.50;;
44228;SDS011;29904;51.058;5.378;2023-12-20T02:35:20;9.07;;;2.80;;
44228;SDS011;29904;51.058;5.378;2023-12-20T02:37:46;10.60;;;3.00;;
44228;SDS011;29904;51.058;5.378;2023-12-20T02:40:12;8.93;;;2.67;;
44228;SDS011;29904;51.058;5.378;2023-12-20T02:42:39;11.75;;;2.72;;
44228;SDS011;29904;51.058;5.378;2023-12-20T02:45:05;10.52;;;2.80;;
44228;SDS011;29904;51.058;5.378;2023-12-20T02:47:31;10.98;;;2.65;;
44228;SDS011;29904;51.058;5.378;2023-12-20T02:49:57;12.75;;;2.60;;
44228;SDS011;29904;51.058;5.378;2023-12-20T02:52:23;10.38;;;2.65;;
44228;SDS011;29904;51.058;5.378;2023-12-20T02:54:49;9.07;;;2.33;;
44228;SDS011;29904;51.058;5.378;2023-12-20T02:57:19;9.88;;;2.90;;
44228;SDS011;29904;51.058;5.378;2023-12-20T02:59:44;9.98;;;2.40;;
44228;SDS011;29904;51.058;5.378;2023-12-20T03:02:10;12.18;;;2.75;;
44228;SDS011;29904;51.058;5.378;2023-12-20T03:04:36;11.88;;;2.70;;
44228;SDS011;29904;51.058;5.378;2023-12-20T03:07:01;12.80;;;2.30;;
44228;SDS011;29904;51.058;5.378;2023-12-20T03:09:27;12.60;;;2.85;;
44228;SDS011;29904;51.058;5.378;2023-12-20T03:11:53;9.80;;;2.40;;
44228;SDS011;29904;51.058;5.378;2023-12-20T03:14:18;10.18;;;2.50;;
44228;SDS011;29904;51.058;5.378;2023-12-20T03:16:50;10.45;;;2.50;;
44228;SDS011;29904;51.058;5.378;2023-12-20T03:19:16;8.20;;;2.40;;
44228;SDS011;29904;51.058;5.378;2023-12-20T03:21:42;8.68;;;2.20;;
44228;SDS011;29904;51.058;5.378;2023-12-20T03:24:08;9.55;;;2.70;;
44228;SDS011;29904;51.058;5.378;2023-12-20T03:26:38;7.30;;;2.13;;
44228;SDS011;29904;51.058;5.378;2023-12-20T03:29:03;9.32;;;2.80;;
44228;SDS011;29904;51.058;5.378;2023-12-20T03:31:29;9.32;;;2.28;;
44228;SDS011;29904;51.058;5.378;2023-12-20T03:33:55;12.70;;;2.50;;
44228;SDS011;29904;51.058;5.378;2023-12-20T03:36:20;11.48;;;2.40;;
44228;SDS011;29904;51.058;5.378;2023-12-20T03:38:48;10.50;;;2.30;;
44228;SDS011;29904;51.058;5.378;2023-12-20T03:41:14;9.77;;;2.17;;
44228;SDS011;29904;51.058;5.378;2023-12-20T03:43:40;10.93;;;2.03;;
44228;SDS011;29904;51.058;5.378;2023-12-20T03:46:09;12.77;;;2.08;;
44228;SDS011;29904;51.058;5.378;2023-12-20T03:48:35;11.75;;;2.35;;
44228;SDS011;29904;51.058;5.378;2023-12-20T03:51:01;11.48;;;2.53;;
44228;SDS011;29904;51.058;5.378;2023-12-20T03:53:29;9.32;;;2.20;;
44228;SDS011;29904;51.058;5.378;2023-12-20T03:55:55;11.02;;;2.35;;
44228;SDS011;29904;51.058;5.378;2023-12-20T03:58:20;12.98;;;2.10;;
44228;SDS011;29904;51.058;5.378;2023-12-20T04:00:46;8.77;;;1.73;;
44228;SDS011;29904;51.058;5.378;2023-12-20T04:03:12;11.15;;;2.22;;
44228;SDS011;29904;51.058;5.378;2023-12-20T04:05:39;13.13;;;2.20;;
44228;SDS011;29904;51.058;5.378;2023-12-20T04:08:06;10.43;;;2.30;;
44228;SDS011;29904;51.058;5.378;2023-12-20T04:10:33;7.32;;;2.05;;
44228;SDS011;29904;51.058;5.378;2023-12-20T04:12:58;10.55;;;2.10;;
44228;SDS011;29904;51.058;5.378;2023-12-20T04:15:26;10.98;;;2.30;;
44228;SDS011;29904;51.058;5.378;2023-12-20T04:17:52;12.77;;;2.10;;
44228;SDS011;29904;51.058;5.378;2023-12-20T04:20:17;10.50;;;2.13;;
44228;SDS011;29904;51.058;5.378;2023-12-20T04:22:43;9.87;;;2.00;;
44228;SDS011;29904;51.058;5.378;2023-12-20T04:25:09;12.77;;;2.40;;
44228;SDS011;29904;51.058;5.378;2023-12-20T04:27:34;9.53;;;2.17;;
44228;SDS011;29904;51.058;5.378;2023-12-20T04:30:02;11.80;;;2.10;;
44228;SDS011;29904;51.058;5.378;2023-12-20T04:32:28;9.85;;;2.28;;
44228;SDS011;29904;51.058;5.378;2023-12-20T04:34:54;8.05;;;1.75;;
44228;SDS011;29904;51.058;5.378;2023-12-20T04:37:20;14.23;;;2.28;;
44228;SDS011;29904;51.058;5.378;2023-12-20T04:39:45;14.90;;;2.35;;
44228;SDS011;29904;51.058;5.378;2023-12-20T04:42:11;8.40;;;1.80;;
44228;SDS011;29904;51.058;5.378;2023-12-20T04:44:37;11.23;;;1.88;;
44228;SDS011;29904;51.058;5.378;2023-12-20T04:47:02;11.73;;;1.95;;
44228;SDS011;29904;51.058;5.378;2023-12-20T04:49:28;12.20;;;1.60;;
44228;SDS011;29904;51.058;5.378;2023-12-20T04:51:54;10.15;;;1.95;;
44228;SDS011;29904;51.058;5.378;2023-12-20T04:54:20;10.13;;;2.10;;
44228;SDS011;29904;51.058;5.378;2023-12-20T04:56:46;8.57;;;2.03;;
44228;SDS011;29904;51.058;5.378;2023-12-20T04:59:14;11.07;;;2.17;;
44228;SDS011;29904;51.058;5.378;2023-12-20T05:01:40;13.20;;;2.22;;
44228;SDS011;29904;51.058;5.378;2023-12-20T05:04:06;11.60;;;2.17;;
44228;SDS011;29904;51.058;5.378;2023-12-20T05:06:35;10.68;;;2.15;;
44228;SDS011;29904;51.058;5.378;2023-12-20T05:09:01;7.80;;;2.20;;
44228;SDS011;29904;51.058;5.378;2023-12-20T05:11:27;10.30;;;2.05;;
44228;SDS011;29904;51.058;5.378;2023-12-20T05:13:52;11.95;;;1.92;;
44228;SDS011;29904;51.058;5.378;2023-12-20T05:16:18;12.07;;;2.40;;
44228;SDS011;29904;51.058;5.378;2023-12-20T05:18:44;10.30;;;2.60;;
44228;SDS011;29904;51.058;5.378;2023-12-20T05:21:13;8.60;;;1.88;;
44228;SDS011;29904;51.058;5.378;2023-12-20T05:23:38;13.35;;;2.40;;
44228;SDS011;29904;51.058;5.378;2023-12-20T05:26:04;12.38;;;2.58;;
44228;SDS011;29904;51.058;5.378;2023-12-20T05:28:30;9.88;;;2.03;;
44228;SDS011;29904;51.058;5.378;2023-12-20T05:30:55;11.18;;;2.05;;
44228;SDS011;29904;51.058;5.378;2023-12-20T05:33:21;14.88;;;2.50;;
44228;SDS011;29904;51.058;5.378;2023-12-20T05:35:49;10.82;;;2.42;;
44228;SDS011;29904;51.058;5.378;2023-12-20T05:38:15;9.27;;;2.40;;
44228;SDS011;29904;51.058;5.378;2023-12-20T05:40:41;17.75;;;2.53;;
44228;SDS011;29904;51.058;5.378;2023-12-20T05:43:11;13.20;;;2.33;;
44228;SDS011;29904;51.058;5.378;2023-12-20T05:45:36;13.70;;;2.53;;
44228;SDS011;29904;51.058;5.378;2023-12-20T05:48:02;10.07;;;2.30;;
44228;SDS011;29904;51.058;5.378;2023-12-20T05:50:28;14.95;;;2.60;;
44228;SDS011;29904;51.058;5.378;2023-12-20T05:52:54;14.32;;;2.80;;
44228;SDS011;29904;51.058;5.378;2023-12-20T05:55:20;7.70;;;2.20;;
44228;SDS011;29904;51.058;5.378;2023-12-20T05:57:48;12.65;;;2.60;;
44228;SDS011;29904;51.058;5.378;2023-12-20T06:00:13;13.40;;;2.47;;
44228;SDS011;29904;51.058;5.378;2023-12-20T06:02:40;11.45;;;2.10;;
44228;SDS011;29904;51.058;5.378;2023-12-20T06:05:06;13.00;;;2.33;;
44228;SDS011;29904;51.058;5.378;2023-12-20T06:07:32;9.88;;;2.55;;
44228;SDS011;29904;51.058;5.378;2023-12-20T06:09:58;11.35;;;2.30;;
44228;SDS011;29904;51.058;5.378;2023-12-20T06:12:24;12.35;;;2.25;;
44228;SDS011;29904;51.058;5.378;2023-12-20T06:14:51;11.98;;;2.17;;
44228;SDS011;29904;51.058;5.378;2023-12-20T06:17:17;9.00;;;2.22;;
44228;SDS011;29904;51.058;5.378;2023-12-20T06:19:45;11.20;;;2.63;;
44228;SDS011;29904;51.058;5.378;2023-12-20T06:22:13;9.35;;;2.00;;
44228;SDS011;29904;51.058;5.378;2023-12-20T06:24:39;11.68;;;2.65;;
44228;SDS011;29904;51.058;5.378;2023-12-20T06:27:05;13.48;;;2.30;;
44228;SDS011;29904;51.058;5.378;2023-12-20T06:29:30;15.80;;;2.60;;
44228;SDS011;29904;51.058;5.378;2023-12-20T06:31:56;10.82;;;2.40;;
44228;SDS011;29904;51.058;5.378;2023-12-20T06:34:22;12.30;;;2.75;;
44228;SDS011;29904;51.058;5.378;2023-12-20T06:36:48;12.38;;;2.85;;
44228;SDS011;29904;51.058;5.378;2023-12-20T06:39:13;8.60;;;2.47;;
44228;SDS011;29904;51.058;5.378;2023-12-20T06:41:39;9.35;;;2.75;;
44228;SDS011;29904;51.058;5.378;2023-12-20T06:44:05;10.38;;;2.70;;
44228;SDS011;29904;51.058;5.378;2023-12-20T06:46:31;13.45;;;2.78;;
44228;SDS011;29904;51.058;5.378;2023-12-20T06:48:57;12.07;;;2.80;;
44228;SDS011;29904;51.058;5.378;2023-12-20T06:51:22;10.97;;;2.50;;
44228;SDS011;29904;51.058;5.378;2023-12-20T06:53:50;10.82;;;2.42;;
44228;SDS011;29904;51.058;5.378;2023-12-20T06:56:19;11.30;;;2.83;;
44228;SDS011;29904;51.058;5.378;2023-12-20T06:58:45;13.97;;;2.60;;
44228;SDS011;29904;51.058;5.378;2023-12-20T07:01:14;13.02;;;2.85;;
44228;SDS011;29904;51.058;5.378;2023-12-20T07:03:41;10.48;;;2.53;;
44228;SDS011;29904;51.058;5.378;2023-12-20T07:06:07;11.30;;;2.40;;
44228;SDS011;29904;51.058;5.378;2023-12-20T07:08:33;10.02;;;2.53;;
44228;SDS011;29904;51.058;5.378;2023-12-20T07:10:59;12.13;;;2.90;;
44228;SDS011;29904;51.058;5.378;2023-12-20T07:13:24;16.60;;;3.25;;
44228;SDS011;29904;51.058;5.378;2023-12-20T07:15:50;12.88;;;2.60;;
44228;SDS011;29904;51.058;5.378;2023-12-20T07:18:16;10.30;;;2.13;;
44228;SDS011;29904;51.058;5.378;2023-12-20T07:20:42;13.77;;;3.00;;
44228;SDS011;29904;51.058;5.378;2023-12-20T07:23:08;8.43;;;2.42;;
44228;SDS011;29904;51.058;5.378;2023-12-20T07:25:34;10.95;;;2.45;;
44228;SDS011;29904;51.058;5.378;2023-12-20T07:27:59;11.82;;;2.30;;
44228;SDS011;29904;51.058;5.378;2023-12-20T07:30:25;9.80;;;2.38;;
44228;SDS011;29904;51.058;5.378;2023-12-20T07:32:53;11.13;;;2.35;;
44228;SDS011;29904;51.058;5.378;2023-12-20T07:35:19;12.90;;;2.47;;
44228;SDS011;29904;51.058;5.378;2023-12-20T07:37:44;12.20;;;2.30;;
44228;SDS011;29904;51.058;5.378;2023-12-20T07:40:12;9.98;;;2.47;;
44228;SDS011;29904;51.058;5.378;2023-12-20T07:42:38;13.97;;;2.70;;
44228;SDS011;29904;51.058;5.378;2023-12-20T07:45:04;12.07;;;2.17;;
44228;SDS011;29904;51.058;5.378;2023-12-20T07:47:32;14.85;;;2.67;;
44228;SDS011;29904;51.058;5.378;2023-12-20T07:49:57;9.68;;;2.08;;
44228;SDS011;29904;51.058;5.378;2023-12-20T07:52:23;11.93;;;2.30;;
44228;SDS011;29904;51.058;5.378;2023-12-20T07:54:49;13.23;;;2.47;;
44228;SDS011;29904;51.058;5.378;2023-12-20T07:57:15;12.15;;;2.50;;
44228;SDS011;29904;51.058;5.378;2023-12-20T07:59:40;12.70;;;2.33;;
44228;SDS011;29904;51.058;5.378;2023-12-20T08:02:06;12.85;;;2.80;;
44228;SDS011;29904;51.058;5.378;2023-12-20T08:04:34;12.95;;;2.70;;
44228;SDS011;29904;51.058;5.378;2023-12-20T08:07:00;11.90;;;2.20;;
44228;SDS011;29904;51.058;5.378;2023-12-20T08:09:28;10.63;;;2.63;;
44228;SDS011;29904;51.058;5.378;2023-12-20T08:11:54;11.38;;;2.60;;
44228;SDS011;29904;51.058;5.378;2023-12-20T08:14:20;11.67;;;2.50;;
44228;SDS011;29904;51.058;5.378;2023-12-20T08:16:46;13.30;;;2.57;;
44228;SDS011;29904;51.058;5.378;2023-12-20T08:19:12;9.40;;;2.20;;
44228;SDS011;29904;51.058;5.378;2023-12-20T08:21:38;11.98;;;2.38;;
44228;SDS011;29904;51.058;5.378;2023-12-20T08:24:04;10.30;;;2.33;;
44228;SDS011;29904;51.058;5.378;2023-12-20T08:26:32;9.00;;;2.38;;
44228;SDS011;29904;51.058;5.378;2023-12-20T08:28:58;9.32;;;1.90;;
44228;SDS011;29904;51.058;5.378;2023-12-20T08:31:24;8.93;;;1.90;;
44228;SDS011;29904;51.058;5.378;2023-12-20T08:33:52;7.87;;;2.13;;
44228;SDS011;29904;51.058;5.378;2023-12-20T08:36:19;10.35;;;2.28;;
44228;SDS011;29904;51.058;5.378;2023-12-20T08:38:46;10.00;;;2.00;;
44228;SDS011;29904;51.058;5.378;2023-12-20T08:41:12;8.40;;;1.90;;
44228;SDS011;29904;51.058;5.378;2023-12-20T08:43:38;8.43;;;1.90;;
44228;SDS011;29904;51.058;5.378;2023-12-20T08:46:06;11.10;;;2.13;;
44228;SDS011;29904;51.058;5.378;2023-12-20T08:48:34;12.15;;;2.10;;
44228;SDS011;29904;51.058;5.378;2023-12-20T08:51:00;8.70;;;1.90;;
44228;SDS011;29904;51.058;5.378;2023-12-20T08:53:26;10.93;;;2.13;;
44228;SDS011;29904;51.058;5.378;2023-12-20T08:55:51;8.48;;;2.50;;
44228;SDS011;29904;51.058;5.378;2023-12-20T08:58:19;9.73;;;2.92;;
44228;SDS011;29904;51.058;5.378;2023-12-20T09:00:45;10.70;;;2.43;;
44228;SDS011;29904;51.058;5.378;2023-12-20T09:03:10;12.10;;;2.30;;
44228;SDS011;29904;51.058;5.378;2023-12-20T09:05:36;11.10;;;2.17;;
44228;SDS011;29904;51.058;5.378;2023-12-20T09:08:02;12.20;;;2.20;;
44228;SDS011;29904;51.058;5.378;2023-12-20T09:10:28;9.73;;;1.90;;
44228;SDS011;29904;51.058;5.378;2023-12-20T09:12:55;8.05;;;1.70;;
44228;SDS011;29904;51.058;5.378;2023-12-20T09:15:25;10.60;;;1.85;;
44228;SDS011;29904;51.058;5.378;2023-12-20T09:17:52;8.18;;;1.73;;
44228;SDS011;29904;51.058;5.378;2023-12-20T09:20:19;7.60;;;1.50;;
44228;SDS011;29904;51.058;5.378;2023-12-20T09:22:45;9.43;;;2.10;;
44228;SDS011;29904;51.058;5.378;2023-12-20T09:25:11;10.43;;;2.00;;
44228;SDS011;29904;51.058;5.378;2023-12-20T09:27:40;8.75;;;2.00;;
44228;SDS011;29904;51.058;5.378;2023-12-20T09:30:06;10.10;;;2.43;;
44228;SDS011;29904;51.058;5.378;2023-12-20T09:32:32;9.50;;;1.93;;
44228;SDS011;29904;51.058;5.378;2023-12-20T09:34:58;9.45;;;1.70;;
44228;SDS011;29904;51.058;5.378;2023-12-20T09:37:27;9.10;;;1.58;;
44228;SDS011;29904;51.058;5.378;2023-12-20T09:39:53;12.43;;;2.33;;
44228;SDS011;29904;51.058;5.378;2023-12-20T09:42:21;11.32;;;2.08;;
44228;SDS011;29904;51.058;5.378;2023-12-20T09:44:54;8.52;;;1.95;;
44228;SDS011;29904;51.058;5.378;2023-12-20T09:47:22;8.45;;;1.80;;
44228;SDS011;29904;51.058;5.378;2023-12-20T09:49:50;9.40;;;2.35;;
44228;SDS011;29904;51.058;5.378;2023-12-20T09:52:16;11.70;;;2.20;;
44228;SDS011;29904;51.058;5.378;2023-12-20T09:54:43;6.00;;;1.60;;
44228;SDS011;29904;51.058;5.378;2023-12-20T09:57:14;9.37;;;2.20;;
44228;SDS011;29904;51.058;5.378;2023-12-20T09:59:40;6.77;;;1.90;;
44228;SDS011;29904;51.058;5.378;2023-12-20T10:02:06;8.77;;;1.80;;
44228;SDS011;29904;51.058;5.378;2023-12-20T10:04:37;12.63;;;2.13;;
44228;SDS011;29904;51.058;5.378;2023-12-20T10:07:06;10.05;;;2.17;;
44228;SDS011;29904;51.058;5.378;2023-12-20T10:09:31;11.60;;;1.80;;
44228;SDS011;29904;51.058;5.378;2023-12-20T10:11:57;9.75;;;1.83;;
44228;SDS011;29904;51.058;5.378;2023-12-20T10:14:23;6.97;;;1.70;;
44228;SDS011;29904;51.058;5.378;2023-12-20T10:16:49;9.00;;;1.73;;
44228;SDS011;29904;51.058;5.378;2023-12-20T10:19:19;8.90;;;2.17;;
44228;SDS011;29904;51.058;5.378;2023-12-20T10:21:45;10.07;;;2.42;;
44228;SDS011;29904;51.058;5.378;2023-12-20T10:24:11;6.93;;;1.80;;
44228;SDS011;29904;51.058;5.378;2023-12-20T10:26:42;9.47;;;2.00;;
44228;SDS011;29904;51.058;5.378;2023-12-20T10:29:08;8.20;;;1.70;;
44228;SDS011;29904;51.058;5.378;2023-12-20T10:31:35;12.38;;;2.10;;
44228;SDS011;29904;51.058;5.378;2023-12-20T10:34:07;9.45;;;1.85;;
44228;SDS011;29904;51.058;5.378;2023-12-20T10:36:33;8.48;;;1.88;;
44228;SDS011;29904;51.058;5.378;2023-12-20T10:38:59;8.60;;;1.83;;
44228;SDS011;29904;51.058;5.378;2023-12-20T10:41:29;8.88;;;2.08;;
44228;SDS011;29904;51.058;5.378;2023-12-20T10:43:59;9.33;;;1.73;;
44228;SDS011;29904;51.058;5.378;2023-12-20T10:46:26;10.50;;;1.70;;
44228;SDS011;29904;51.058;5.378;2023-12-20T10:48:56;8.57;;;1.65;;
44228;SDS011;29904;51.058;5.378;2023-12-20T10:51:23;8.43;;;1.75;;
44228;SDS011;29904;51.058;5.378;2023-12-20T10:53:51;8.70;;;1.90;;
44228;SDS011;29904;51.058;5.378;2023-12-20T10:56:18;9.27;;;2.20;;
44228;SDS011;29904;51.058;5.378;2023-12-20T10:58:45;9.10;;;1.60;;
44228;SDS011;29904;51.058;5.378;2023-12-20T11:01:16;11.07;;;2.00;;
44228;SDS011;29904;51.058;5.378;2023-12-20T11:03:50;7.78;;;1.60;;
44228;SDS011;29904;51.058;5.378;2023-12-20T11:09:26;8.85;;;1.60;;
44228;SDS011;29904;51.058;5.378;2023-12-20T11:14:31;10.95;;;1.80;;
44228;SDS011;29904;51.058;5.378;2023-12-20T11:17:22;8.13;;;1.80;;
44228;SDS011;29904;51.058;5.378;2023-12-20T11:22:29;10.02;;;1.85;;
44228;SDS011;29904;51.058;5.378;2023-12-20T11:25:02;7.93;;;1.83;;
44228;SDS011;29904;51.058;5.378;2023-12-20T11:27:30;9.38;;;2.10;;
44228;SDS011;29904;51.058;5.378;2023-12-20T11:29:57;11.80;;;2.20;;
44228;SDS011;29904;51.058;5.378;2023-12-20T11:34:53;7.05;;;1.80;;
44228;SDS011;29904;51.058;5.378;2023-12-20T11:37:20;10.25;;;2.17;;
44228;SDS011;29904;51.058;5.378;2023-12-20T11:39:54;8.82;;;1.85;;
44228;SDS011;29904;51.058;5.378;2023-12-20T11:42:22;9.35;;;1.92;;
44228;SDS011;29904;51.058;5.378;2023-12-20T11:44:48;7.55;;;1.67;;
44228;SDS011;29904;51.058;5.378;2023-12-20T11:47:15;9.65;;;1.90;;
44228;SDS011;29904;51.058;5.378;2023-12-20T11:49:44;14.57;;;2.63;;
44228;SDS011;29904;51.058;5.378;2023-12-20T11:52:12;9.32;;;2.10;;
44228;SDS011;29904;51.058;5.378;2023-12-20T11:54:38;10.13;;;2.15;;
44228;SDS011;29904;51.058;5.378;2023-12-20T11:57:06;10.48;;;2.08;;
44228;SDS011;29904;51.058;5.378;2023-12-20T11:59:31;6.65;;;2.10;;
44228;SDS011;29904;51.058;5.378;2023-12-20T12:01:58;9.27;;;2.57;;
44228;SDS011;29904;51.058;5.378;2023-12-20T12:04:26;13.88;;;2.78;;
44228;SDS011;29904;51.058;5.378;2023-12-20T12:06:53;10.35;;;2.95;;
44228;SDS011;29904;51.058;5.378;2023-12-20T12:09:19;10.60;;;2.80;;
44228;SDS011;29904;51.058;5.378;2023-12-20T12:11:46;10.32;;;2.45;;
44228;SDS011;29904;51.058;5.378;2023-12-20T12:14:13;8.57;;;2.53;;
44228;SDS011;29904;51.058;5.378;2023-12-20T12:16:38;11.48;;;2.50;;
44228;SDS011;29904;51.058;5.378;2023-12-20T12:19:07;7.88;;;2.15;;
44228;SDS011;29904;51.058;5.378;2023-12-20T12:21:44;10.50;;;2.60;;
44228;SDS011;29904;51.058;5.378;2023-12-20T12:24:10;8.65;;;2.33;;
44228;SDS011;29904;51.058;5.378;2023-12-20T12:26:37;10.02;;;2.60;;
44228;SDS011;29904;51.058;5.378;2023-12-20T12:29:03;10.85;;;2.65;;
44228;SDS011;29904;51.058;5.378;2023-12-20T12:31:28;10.77;;;2.55;;
44228;SDS011;29904;51.058;5.378;2023-12-20T12:33:55;10.13;;;2.27;;
44228;SDS011;29904;51.058;5.378;2023-12-20T12:36:21;10.20;;;2.30;;
44228;SDS011;29904;51.058;5.378;2023-12-20T12:38:47;12.23;;;2.15;;
44228;SDS011;29904;51.058;5.378;2023-12-20T12:41:13;10.05;;;2.40;;
44228;SDS011;29904;51.058;5.378;2023-12-20T12:43:40;10.65;;;2.50;;
44228;SDS011;29904;51.058;5.378;2023-12-20T12:46:06;11.40;;;3.05;;
44228;SDS011;29904;51.058;5.378;2023-12-20T12:48:32;9.88;;;3.45;;
44228;SDS011;29904;51.058;5.378;2023-12-20T12:50:58;11.10;;;3.40;;
44228;SDS011;29904;51.058;5.378;2023-12-20T12:53:26;10.57;;;2.30;;
44228;SDS011;29904;51.058;5.378;2023-12-20T12:55:52;9.73;;;2.27;;
44228;SDS011;29904;51.058;5.378;2023-12-20T12:58:19;9.88;;;2.22;;
44228;SDS011;29904;51.058;5.378;2023-12-20T13:00:45;9.68;;;2.38;;
44228;SDS011;29904;51.058;5.378;2023-12-20T13:03:11;13.75;;;2.78;;
44228;SDS011;29904;51.058;5.378;2023-12-20T13:05:37;8.63;;;2.60;;
44228;SDS011;29904;51.058;5.378;2023-12-20T13:08:05;7.63;;;2.40;;
44228;SDS011;29904;51.058;5.378;2023-12-20T13:10:31;10.18;;;2.50;;
44228;SDS011;29904;51.058;5.378;2023-12-20T13:12:57;8.77;;;2.70;;
44228;SDS011;29904;51.058;5.378;2023-12-20T13:15:25;11.05;;;2.50;;
44228;SDS011;29904;51.058;5.378;2023-12-20T13:17:50;9.50;;;2.60;;
44228;SDS011;29904;51.058;5.378;2023-12-20T13:20:16;7.43;;;2.17;;
44228;SDS011;29904;51.058;5.378;2023-12-20T13:22:42;12.18;;;2.53;;
44228;SDS011;29904;51.058;5.378;2023-12-20T13:25:08;11.73;;;2.37;;
44228;SDS011;29904;51.058;5.378;2023-12-20T13:27:33;8.65;;;1.90;;
44228;SDS011;29904;51.058;5.378;2023-12-20T13:30:01;10.93;;;2.50;;
44228;SDS011;29904;51.058;5.378;2023-12-20T13:32:28;8.10;;;2.10;;
44228;SDS011;29904;51.058;5.378;2023-12-20T13:34:53;11.00;;;2.13;;
44228;SDS011;29904;51.058;5.378;2023-12-20T13:37:19;7.93;;;2.00;;
44228;SDS011;29904;51.058;5.378;2023-12-20T13:39:45;10.70;;;2.15;;
44228;SDS011;29904;51.058;5.378;2023-12-20T13:42:11;9.03;;;1.97;;
44228;SDS011;29904;51.058;5.378;2023-12-20T13:44:41;10.98;;;1.80;;
44228;SDS011;29904;51.058;5.378;2023-12-20T13:47:06;9.40;;;2.10;;
44228;SDS011;29904;51.058;5.378;2023-12-20T13:49:32;6.00;;;1.63;;
44228;SDS011;29904;51.058;5.378;2023-12-20T13:51:58;8.82;;;2.22;;
44228;SDS011;29904;51.058;5.378;2023-12-20T13:54:24;10.82;;;2.38;;
44228;SDS011;29904;51.058;5.378;2023-12-20T13:56:50;10.60;;;2.20;;
44228;SDS011;29904;51.058;5.378;2023-12-20T13:59:16;8.27;;;2.03;;
44228;SDS011;29904;51.058;5.378;2023-12-20T14:01:41;9.43;;;2.07;;
44228;SDS011;29904;51.058;5.378;2023-12-20T14:04:07;9.50;;;2.20;;
44228;SDS011;29904;51.058;5.378;2023-12-20T14:06:33;9.38;;;2.40;;
44228;SDS011;29904;51.058;5.378;2023-12-20T14:08:59;11.75;;;2.45;;
44228;SDS011;29904;51.058;5.378;2023-12-20T14:11:28;11.63;;;2.50;;
44228;SDS011;29904;51.058;5.378;2023-12-20T14:13:54;8.87;;;2.77;;
44228;SDS011;29904;51.058;5.378;2023-12-20T14:16:23;13.13;;;2.55;;
44228;SDS011;29904;51.058;5.378;2023-12-20T14:18:49;11.33;;;2.53;;
44228;SDS011;29904;51.058;5.378;2023-12-20T14:21:17;11.00;;;2.70;;
44228;SDS011;29904;51.058;5.378;2023-12-20T14:23:44;11.43;;;2.58;;
44228;SDS011;29904;51.058;5.378;2023-12-20T14:26:11;13.75;;;2.90;;
44228;SDS011;29904;51.058;5.378;2023-12-20T14:28:40;13.05;;;2.30;;
44228;SDS011;29904;51.058;5.378;2023-12-20T14:31:07;11.80;;;2.83;;
44228;SDS011;29904;51.058;5.378;2023-12-20T14:33:36;8.18;;;2.70;;
44228;SDS011;29904;51.058;5.378;2023-12-20T14:36:03;8.25;;;2.25;;
44228;SDS011;29904;51.058;5.378;2023-12-20T14:38:33;9.65;;;2.38;;
44228;SDS011;29904;51.058;5.378;2023-12-20T14:40:59;9.50;;;2.00;;
44228;SDS011;29904;51.058;5.378;2023-12-20T14:43:25;8.15;;;2.45;;
44228;SDS011;29904;51.058;5.378;2023-12-20T14:45:51;9.50;;;2.38;;
44228;SDS011;29904;51.058;5.378;2023-12-20T14:48:17;10.00;;;2.40;;